createdAt,value
2023-04-18T00:00:49.300Z,10.50
2023-04-18T00:03:16.590Z,10.50
2023-04-18T00:05:48.094Z,10.50
2023-04-18T00:08:15.106Z,10.50
2023-04-18T00:10:42.242Z,10.40
2023-04-18T00:13:10.189Z,10.50
2023-04-18T00:15:37.155Z,10.40
2023-04-18T00:18:06.029Z,10.30
2023-04-18T00:20:33.111Z,10.20
2023-04-18T00:23:00.714Z,10.10
2023-04-18T00:25:27.638Z,10.10
2023-04-18T00:27:54.470Z,10.10
2023-04-18T00:30:21.448Z,10.10
2023-04-18T00:32:48.329Z,10.10
2023-04-18T00:35:15.282Z,10.20
2023-04-18T00:37:42.067Z,10.20
2023-04-18T00:40:09.474Z,10.10
2023-04-18T00:42:36.300Z,10.00
2023-04-18T00:45:03.268Z,10.00
2023-04-18T00:47:30.120Z,10.00
2023-04-18T00:49:57.236Z,10.00
2023-04-18T00:52:27.106Z,10.00
2023-04-18T00:54:55.447Z,10.00
2023-04-18T00:57:22.730Z,10.00
2023-04-18T00:59:50.185Z,10.00
2023-04-18T01:02:17.379Z,10.00
2023-04-18T01:04:44.391Z,10.00
2023-04-18T01:07:11.708Z,9.90
2023-04-18T01:09:38.960Z,9.80
2023-04-18T01:12:06.153Z,9.80
2023-04-18T01:14:33.071Z,9.70
2023-04-18T01:16:59.888Z,9.80
2023-04-18T01:19:26.888Z,9.70
2023-04-18T01:21:54.313Z,9.80
2023-04-18T01:24:24.482Z,9.80
2023-04-18T01:26:51.563Z,9.80
2023-04-18T01:29:18.472Z,9.80
2023-04-18T01:31:46.067Z,10.00
2023-04-18T01:34:13.423Z,10.00
2023-04-18T01:36:41.067Z,10.10
2023-04-18T01:39:07.958Z,10.20
2023-04-18T01:41:34.909Z,10.10
2023-04-18T01:44:02.284Z,10.00
2023-04-18T01:46:29.595Z,9.90
2023-04-18T01:48:57.287Z,9.90
2023-04-18T01:51:24.387Z,9.90
2023-04-18T01:53:51.316Z,9.90
2023-04-18T01:56:18.129Z,9.90
2023-04-18T01:58:45.196Z,9.90
2023-04-18T02:01:12.125Z,9.90
2023-04-18T02:03:39.961Z,9.90
2023-04-18T02:06:07.128Z,9.80
2023-04-18T02:08:35.864Z,9.70
2023-04-18T02:11:03.149Z,9.70
2023-04-18T02:13:30.020Z,9.70
2023-04-18T02:15:56.961Z,9.70
2023-04-18T02:18:24.929Z,9.60
2023-04-18T02:20:52.343Z,9.70
2023-04-18T02:23:19.514Z,9.70
2023-04-18T02:25:46.428Z,9.60
2023-04-18T02:28:13.334Z,9.50
2023-04-18T02:30:40.274Z,9.60
2023-04-18T02:33:07.191Z,9.60
2023-04-18T02:35:34.109Z,9.70
2023-04-18T02:38:00.975Z,9.70
2023-04-18T02:40:27.853Z,9.70
2023-04-18T02:42:54.678Z,9.70
2023-04-18T02:45:21.716Z,9.60
2023-04-18T02:47:55.385Z,9.60
2023-04-18T02:50:22.770Z,9.60
2023-04-18T02:52:49.664Z,9.40
2023-04-18T02:55:16.606Z,9.30
2023-04-18T02:57:43.457Z,9.30
2023-04-18T03:00:10.938Z,9.30
2023-04-18T03:02:37.875Z,9.40
2023-04-18T03:05:05.785Z,9.40
2023-04-18T03:07:32.762Z,9.40
2023-04-18T03:10:00.001Z,9.30
2023-04-18T03:12:26.844Z,9.20
2023-04-18T03:14:53.764Z,9.30
2023-04-18T03:17:20.835Z,9.30
2023-04-18T03:19:47.867Z,9.30
2023-04-18T03:22:14.943Z,9.30
2023-04-18T03:24:41.863Z,9.30
2023-04-18T03:27:08.802Z,9.40
2023-04-18T03:29:35.626Z,9.40
2023-04-18T03:32:02.542Z,9.40
2023-04-18T03:34:29.739Z,9.50
2023-04-18T03:36:56.782Z,9.50
2023-04-18T03:39:23.664Z,9.50
2023-04-18T03:41:52.158Z,9.40
2023-04-18T03:44:19.122Z,9.40
2023-04-18T03:46:46.328Z,9.40
2023-04-18T03:49:13.322Z,9.30
2023-04-18T03:51:47.687Z,9.30
2023-04-18T03:54:18.139Z,9.40
2023-04-18T03:56:45.447Z,9.50
2023-04-18T03:59:12.427Z,9.40
2023-04-18T04:01:39.441Z,9.40
2023-04-18T04:04:06.632Z,9.40
2023-04-18T04:06:33.643Z,9.40
2023-04-18T04:09:00.924Z,9.50
2023-04-18T04:11:27.790Z,9.40
2023-04-18T04:13:54.699Z,9.30
2023-04-18T04:16:21.634Z,9.40
2023-04-18T04:18:48.543Z,9.30
2023-04-18T04:21:15.783Z,9.30
2023-04-18T04:23:42.894Z,9.20
2023-04-18T04:26:09.950Z,9.20
2023-04-18T04:28:36.923Z,9.20
2023-04-18T04:31:08.221Z,9.20
2023-04-18T04:33:35.821Z,9.20
2023-04-18T04:36:02.683Z,9.30
2023-04-18T04:38:31.056Z,9.30
2023-04-18T04:40:58.498Z,9.30
2023-04-18T04:43:26.056Z,9.30
2023-04-18T04:45:54.163Z,9.20
2023-04-18T04:48:22.176Z,9.30
2023-04-18T04:50:57.188Z,9.30
2023-04-18T04:53:30.394Z,9.30
2023-04-18T04:55:58.028Z,9.30
2023-04-18T04:58:24.987Z,9.30
2023-04-18T05:00:52.883Z,9.40
2023-04-18T05:03:20.022Z,9.50
2023-04-18T05:05:47.700Z,9.50
2023-04-18T05:08:14.616Z,9.40
2023-04-18T05:10:42.600Z,9.40
2023-04-18T05:13:09.710Z,9.50
2023-04-18T05:15:36.654Z,9.40
2023-04-18T05:18:03.778Z,9.50
2023-04-18T05:20:30.659Z,9.50
2023-04-18T05:22:57.610Z,9.50
2023-04-18T05:25:24.501Z,9.80
2023-04-18T05:27:51.773Z,9.40
2023-04-18T05:30:18.803Z,9.40
2023-04-18T05:32:45.982Z,9.40
2023-04-18T05:35:13.127Z,9.40
2023-04-18T05:37:39.984Z,9.40
2023-04-18T05:40:09.039Z,9.20
2023-04-18T05:42:36.001Z,9.10
2023-04-18T05:45:03.007Z,9.00
2023-04-18T05:47:30.370Z,8.90
2023-04-18T05:49:57.281Z,8.90
2023-04-18T05:52:26.063Z,8.90
2023-04-18T05:54:53.066Z,8.90
2023-04-18T05:57:19.920Z,9.00
2023-04-18T05:59:46.753Z,9.10
2023-04-18T06:02:13.820Z,9.20
2023-04-18T06:04:41.972Z,9.30
2023-04-18T06:07:09.926Z,9.30
2023-04-18T06:09:36.954Z,9.40
2023-04-18T06:12:04.222Z,9.50
2023-04-18T06:14:31.397Z,9.50
2023-04-18T06:16:58.365Z,9.50
2023-04-18T06:19:25.235Z,9.70
2023-04-18T06:21:53.340Z,9.70
2023-04-18T06:24:20.650Z,9.90
2023-04-18T06:26:47.532Z,10.00
2023-04-18T06:29:14.418Z,10.00
2023-04-18T06:31:42.132Z,10.00
2023-04-18T06:34:09.365Z,10.00
2023-04-18T06:36:36.315Z,10.00
2023-04-18T06:39:03.485Z,10.00
2023-04-18T06:41:31.172Z,10.00
2023-04-18T06:44:02.946Z,9.90
2023-04-18T06:46:32.175Z,10.00
2023-04-18T06:48:59.559Z,9.90
2023-04-18T06:51:27.403Z,9.90
2023-04-18T06:53:54.365Z,9.90
2023-04-18T06:56:21.666Z,10.00
2023-04-18T06:58:48.696Z,9.90
2023-04-18T07:01:15.897Z,9.80
2023-04-18T07:03:42.924Z,9.90
2023-04-18T07:06:10.923Z,10.00
2023-04-18T07:08:38.013Z,10.20
2023-04-18T07:11:06.422Z,10.20
2023-04-18T07:13:33.549Z,10.30
2023-04-18T07:16:01.475Z,10.20
2023-04-18T07:18:37.331Z,10.20
2023-04-18T07:21:09.091Z,10.20
2023-04-18T07:23:36.351Z,10.40
2023-04-18T07:26:05.440Z,10.40
2023-04-18T07:28:33.079Z,10.40
2023-04-18T07:31:01.215Z,10.50
2023-04-18T07:33:31.614Z,10.50
2023-04-18T07:35:58.669Z,10.50
2023-04-18T07:38:25.604Z,10.50
2023-04-18T07:40:59.652Z,10.60
2023-04-18T07:43:26.904Z,10.70
2023-04-18T07:45:54.229Z,10.70
2023-04-18T07:48:25.371Z,10.70
2023-04-18T07:50:52.788Z,10.70
2023-04-18T07:53:20.035Z,10.80
2023-04-18T07:55:47.126Z,11.00
2023-04-18T07:58:14.740Z,11.10
2023-04-18T08:00:42.732Z,11.10
2023-04-18T08:03:11.019Z,11.10
2023-04-18T08:05:42.911Z,11.10
2023-04-18T08:08:11.536Z,11.10
2023-04-18T08:10:38.881Z,11.10
2023-04-18T08:13:06.729Z,11.10
2023-04-18T08:15:33.645Z,11.20
2023-04-18T08:18:01.112Z,11.20
2023-04-18T08:20:28.241Z,11.30
2023-04-18T08:23:07.459Z,11.40
2023-04-18T08:25:36.818Z,11.50
2023-04-18T08:28:04.083Z,11.50
2023-04-18T08:30:31.433Z,11.60
2023-04-18T08:33:00.154Z,11.50
2023-04-18T08:35:27.460Z,11.60
2023-04-18T08:37:54.711Z,11.50
2023-04-18T08:40:21.798Z,11.50
2023-04-18T08:42:50.839Z,11.50
2023-04-18T08:45:19.548Z,11.50
2023-04-18T08:47:46.493Z,11.60
2023-04-18T08:50:13.454Z,11.70
2023-04-18T08:52:45.013Z,11.70
2023-04-18T08:55:12.120Z,11.70
2023-04-18T08:57:39.804Z,11.80
2023-04-18T09:00:09.687Z,11.90
2023-04-18T09:02:45.040Z,12.10
2023-04-18T09:05:19.799Z,12.20
2023-04-18T09:07:48.236Z,12.30
2023-04-18T09:10:29.230Z,12.30
2023-04-18T09:12:57.515Z,12.20
2023-04-18T09:15:27.281Z,12.10
2023-04-18T09:17:56.467Z,11.90
2023-04-18T09:20:35.940Z,11.80
2023-04-18T09:23:05.342Z,11.80
2023-04-18T09:25:39.864Z,11.80
2023-04-18T09:28:29.267Z,11.70
2023-04-18T09:31:13.382Z,11.90
2023-04-18T09:33:44.747Z,12.10
2023-04-18T09:36:22.257Z,12.40
2023-04-18T09:38:55.329Z,12.70
2023-04-18T09:41:23.599Z,12.80
2023-04-18T09:43:50.626Z,12.80
2023-04-18T09:46:17.913Z,12.90
2023-04-18T09:48:44.990Z,13.10
2023-04-18T09:51:14.975Z,13.20
2023-04-18T09:53:47.732Z,13.30
2023-04-18T09:56:28.597Z,13.40
2023-04-18T09:58:59.467Z,13.40
2023-04-18T10:01:28.597Z,13.20
2023-04-18T10:03:57.316Z,13.20
2023-04-18T10:06:27.401Z,13.20
2023-04-18T10:08:55.134Z,13.10
2023-04-18T10:11:24.228Z,13.10
2023-04-18T10:13:57.127Z,13.00
2023-04-18T10:16:24.681Z,13.00
2023-04-18T10:18:51.689Z,13.10
2023-04-18T10:21:18.547Z,13.10
2023-04-18T10:23:48.815Z,13.30
2023-04-18T10:26:16.059Z,13.40
2023-04-18T10:28:49.766Z,13.40
2023-04-18T10:31:17.448Z,13.40
2023-04-18T10:34:00.618Z,13.40
2023-04-18T10:36:32.457Z,13.30
2023-04-18T10:39:23.500Z,13.40
2023-04-18T10:41:51.444Z,13.40
2023-04-18T10:44:20.022Z,13.30
2023-04-18T10:46:53.139Z,13.40
2023-04-18T10:49:26.578Z,13.60
2023-04-18T10:51:58.700Z,14.10
2023-04-18T10:54:28.847Z,14.60
2023-04-18T10:57:01.682Z,15.00
2023-04-18T10:59:30.240Z,15.30
2023-04-18T11:02:04.320Z,15.80
2023-04-18T11:04:31.563Z,16.30
2023-04-18T11:06:58.719Z,16.80
2023-04-18T11:09:25.916Z,17.00
2023-04-18T11:12:10.277Z,16.70
2023-04-18T11:14:44.324Z,16.30
2023-04-18T11:17:26.077Z,15.90
2023-04-18T11:20:14.335Z,15.70
2023-04-18T11:22:48.701Z,15.90
2023-04-18T11:25:16.946Z,16.70
2023-04-18T11:27:48.556Z,17.40
2023-04-18T11:30:16.225Z,17.80
2023-04-18T11:32:43.351Z,18.00
2023-04-18T11:35:12.669Z,18.10
2023-04-18T11:37:39.994Z,18.40
2023-04-18T11:40:09.625Z,18.60
2023-04-18T11:42:38.884Z,18.90
2023-04-18T11:45:15.566Z,19.00
2023-04-18T11:47:43.580Z,19.20
2023-04-18T11:50:12.597Z,19.60
2023-04-18T11:52:42.877Z,18.90
2023-04-18T11:55:17.554Z,18.30
2023-04-18T11:57:51.352Z,18.60
2023-04-18T12:00:21.403Z,19.10
2023-04-18T12:02:51.396Z,19.10
2023-04-18T12:05:32.861Z,19.10
2023-04-18T12:08:06.867Z,19.70
2023-04-18T12:10:33.773Z,20.00
2023-04-18T12:13:00.687Z,20.30
2023-04-18T12:15:29.603Z,20.40
2023-04-18T12:18:01.592Z,20.40
2023-04-18T12:20:36.891Z,20.20
2023-04-18T12:23:04.218Z,19.90
2023-04-18T12:25:31.704Z,19.70
2023-04-18T12:28:04.159Z,19.90
2023-04-18T12:30:37.443Z,20.10
2023-04-18T12:33:05.110Z,20.40
2023-04-18T12:35:32.868Z,20.90
2023-04-18T12:38:01.412Z,20.90
2023-04-18T12:40:29.689Z,20.50
2023-04-18T12:42:56.937Z,20.30
2023-04-18T12:45:24.562Z,20.60
2023-04-18T12:47:52.741Z,20.70
2023-04-18T12:50:22.838Z,20.70
2023-04-18T12:52:52.456Z,20.60
2023-04-18T12:55:19.754Z,20.40
2023-04-18T12:57:47.048Z,20.80
2023-04-18T13:00:14.868Z,21.10
2023-04-18T13:02:44.083Z,21.30
2023-04-18T13:05:13.019Z,21.60
2023-04-18T13:07:42.550Z,21.70
2023-04-18T13:10:14.477Z,21.60
2023-04-18T13:12:41.737Z,21.70
2023-04-18T13:15:09.748Z,21.90
2023-04-18T13:17:37.897Z,22.30
2023-04-18T13:20:06.757Z,22.90
2023-04-18T13:22:34.286Z,23.30
2023-04-18T13:25:01.422Z,23.40
2023-04-18T13:27:28.681Z,23.50
2023-04-18T13:29:56.195Z,23.80
2023-04-18T13:32:23.525Z,24.10
2023-04-18T13:34:50.597Z,24.20
2023-04-18T13:37:17.585Z,24.30
2023-04-18T13:39:44.515Z,24.60
2023-04-18T13:42:11.395Z,24.90
2023-04-18T13:44:38.851Z,25.40
2023-04-18T13:47:07.512Z,25.60
2023-04-18T13:49:35.364Z,25.60
2023-04-18T13:52:02.832Z,25.90
2023-04-18T13:54:31.659Z,25.60
2023-04-18T13:57:01.758Z,25.70
2023-04-18T13:59:32.546Z,25.70
2023-04-18T14:01:59.753Z,25.70
2023-04-18T14:04:27.465Z,25.10
2023-04-18T14:06:55.047Z,25.20
2023-04-18T14:09:21.938Z,25.60
2023-04-18T14:11:48.942Z,25.50
2023-04-18T14:14:15.814Z,25.80
2023-04-18T14:16:42.693Z,25.70
2023-04-18T14:19:09.614Z,25.60
2023-04-18T14:21:36.475Z,25.60
2023-04-18T14:24:05.294Z,25.90
2023-04-18T14:26:32.111Z,26.10
2023-04-18T14:28:58.998Z,25.60
2023-04-18T14:31:26.022Z,25.30
2023-04-18T14:33:52.986Z,24.90
2023-04-18T14:36:19.883Z,24.90
2023-04-18T14:38:50.212Z,24.90
2023-04-18T14:41:17.224Z,24.50
2023-04-18T14:43:44.175Z,23.50
2023-04-18T14:46:13.139Z,23.40
2023-04-18T14:48:40.153Z,23.10
2023-04-18T14:51:07.347Z,22.40
2023-04-18T14:53:34.368Z,22.50
2023-04-18T14:56:01.243Z,23.10
2023-04-18T14:58:28.096Z,23.50
2023-04-18T15:00:55.021Z,23.60
2023-04-18T15:03:22.041Z,23.80
2023-04-18T15:05:49.441Z,23.90
2023-04-18T15:08:16.538Z,23.60
2023-04-18T15:10:44.519Z,22.90
2023-04-18T15:13:11.718Z,22.80
2023-04-18T15:15:39.775Z,22.70
2023-04-18T15:18:08.621Z,22.90
2023-04-18T15:20:37.155Z,22.80
2023-04-18T15:23:04.201Z,23.00
2023-04-18T15:25:31.132Z,23.10
2023-04-18T15:27:58.573Z,23.00
2023-04-18T15:30:25.740Z,23.00
2023-04-18T15:32:54.047Z,23.20
2023-04-18T15:35:21.216Z,23.50
2023-04-18T15:37:49.111Z,23.40
2023-04-18T15:40:18.760Z,23.10
2023-04-18T15:42:46.000Z,22.50
2023-04-18T15:45:13.059Z,22.10
2023-04-18T15:47:40.628Z,22.50
2023-04-18T15:50:08.699Z,22.50
2023-04-18T15:52:36.245Z,22.80
2023-04-18T15:55:03.872Z,23.30
2023-04-18T15:57:31.763Z,23.70
2023-04-18T15:59:59.670Z,24.00
2023-04-18T16:02:26.897Z,24.10
2023-04-18T16:04:53.974Z,24.40
2023-04-18T16:07:21.117Z,24.60
2023-04-18T16:09:48.354Z,24.80
2023-04-18T16:12:15.437Z,24.60
2023-04-18T16:14:42.263Z,24.10
2023-04-18T16:17:09.173Z,24.00
2023-04-18T16:19:38.326Z,24.00
2023-04-18T16:22:07.051Z,24.10
2023-04-18T16:24:33.976Z,24.10
2023-04-18T16:27:01.046Z,24.30
2023-04-18T16:29:27.926Z,24.30
2023-04-18T16:31:54.840Z,24.20
2023-04-18T16:34:21.776Z,24.20
2023-04-18T16:36:50.731Z,23.90
2023-04-18T16:39:19.475Z,24.00
2023-04-18T16:41:46.571Z,24.00
2023-04-18T16:44:13.781Z,24.00
2023-04-18T16:46:41.532Z,24.00
2023-04-18T16:49:08.588Z,24.00
2023-04-18T16:51:37.204Z,23.80
2023-04-18T16:54:05.064Z,23.80
2023-04-18T16:56:32.128Z,23.80
2023-04-18T16:58:58.930Z,23.70
2023-04-18T17:01:25.899Z,23.70
2023-04-18T17:03:52.951Z,23.80
2023-04-18T17:06:20.328Z,23.60
2023-04-18T17:08:50.289Z,23.50
2023-04-18T17:11:17.227Z,23.50
2023-04-18T17:13:44.098Z,23.60
2023-04-18T17:16:11.173Z,23.70
2023-04-18T17:18:38.084Z,23.90
2023-04-18T17:21:04.975Z,23.80
2023-04-18T17:23:32.922Z,23.80
2023-04-18T17:26:00.196Z,23.80
2023-04-18T17:28:27.131Z,23.80
2023-04-18T17:30:54.013Z,23.40
2023-04-18T17:33:21.199Z,23.00
2023-04-18T17:35:48.292Z,22.70
2023-04-18T17:38:15.220Z,22.40
2023-04-18T17:40:42.205Z,22.20
2023-04-18T17:43:09.009Z,21.90
2023-04-18T17:45:35.915Z,21.60
2023-04-18T17:48:03.276Z,21.30
2023-04-18T17:50:30.472Z,20.90
2023-04-18T17:52:57.639Z,20.30
2023-04-18T17:55:26.193Z,19.50
2023-04-18T17:57:53.083Z,19.00
2023-04-18T18:00:20.108Z,18.50
2023-04-18T18:02:47.430Z,18.30
2023-04-18T18:05:14.714Z,17.90
2023-04-18T18:07:45.853Z,17.60
2023-04-18T18:10:15.438Z,17.40
2023-04-18T18:12:42.453Z,17.10
2023-04-18T18:15:09.725Z,17.00
2023-04-18T18:17:36.672Z,16.90
2023-04-18T18:20:09.815Z,16.70
2023-04-18T18:22:37.247Z,16.60
2023-04-18T18:25:05.403Z,16.40
2023-04-18T18:27:32.366Z,16.30
2023-04-18T18:29:59.331Z,16.20
2023-04-18T18:32:27.034Z,16.20
2023-04-18T18:34:54.414Z,16.10
2023-04-18T18:37:23.282Z,15.90
2023-04-18T18:39:50.176Z,15.60
2023-04-18T18:42:17.161Z,15.50
2023-04-18T18:44:44.096Z,15.40
2023-04-18T18:47:11.006Z,15.40
2023-04-18T18:49:37.869Z,15.30
2023-04-18T18:52:05.490Z,15.30
2023-04-18T18:54:32.512Z,15.10
2023-04-18T18:57:02.106Z,15.00
2023-04-18T18:59:29.860Z,14.90
2023-04-18T19:01:56.871Z,14.80
2023-04-18T19:04:24.638Z,14.80
2023-04-18T19:06:51.790Z,14.90
2023-04-18T19:09:18.774Z,14.80
2023-04-18T19:11:45.688Z,14.70
2023-04-18T19:14:12.661Z,14.50
2023-04-18T19:16:39.640Z,14.50
2023-04-18T19:19:06.630Z,14.40
2023-04-18T19:21:33.549Z,14.40
2023-04-18T19:24:00.501Z,14.30
2023-04-18T19:26:27.356Z,14.30
2023-04-18T19:28:54.561Z,14.30
2023-04-18T19:31:21.649Z,14.20
2023-04-18T19:33:48.508Z,14.10
2023-04-18T19:36:16.333Z,14.00
2023-04-18T19:38:43.196Z,13.90
2023-04-18T19:41:10.151Z,13.80
2023-04-18T19:43:38.462Z,13.80
2023-04-18T19:46:05.620Z,13.70
2023-04-18T19:48:32.619Z,13.60
2023-04-18T19:50:59.498Z,13.60
2023-04-18T19:53:26.418Z,13.50
2023-04-18T19:55:55.009Z,13.50
2023-04-18T19:58:46.061Z,13.50
2023-04-18T20:01:14.165Z,13.50
2023-04-18T20:03:41.472Z,13.60
2023-04-18T20:06:08.975Z,13.50
2023-04-18T20:08:36.952Z,13.50
2023-04-18T20:11:08.442Z,13.50
2023-04-18T20:13:36.665Z,13.40
2023-04-18T20:16:08.897Z,13.40
2023-04-18T20:18:38.017Z,13.30
2023-04-18T20:21:09.388Z,13.30
2023-04-18T20:23:37.317Z,13.30
2023-04-18T20:26:04.507Z,13.30
2023-04-18T20:28:31.975Z,13.30
2023-04-18T20:30:59.091Z,13.20
2023-04-18T20:33:26.154Z,13.20
2023-04-18T20:35:54.708Z,13.20
2023-04-18T20:38:25.992Z,13.20
2023-04-18T20:40:54.218Z,13.00
2023-04-18T20:43:21.631Z,13.00
2023-04-18T20:45:50.933Z,13.00
2023-04-18T20:48:18.205Z,13.00
2023-04-18T20:50:50.963Z,12.90
2023-04-18T20:53:21.536Z,12.90
2023-04-18T20:55:49.118Z,12.80
2023-04-18T20:58:16.150Z,12.80
2023-04-18T21:00:44.569Z,12.70
2023-04-18T21:03:15.617Z,12.70
2023-04-18T21:05:43.873Z,12.50
2023-04-18T21:08:11.402Z,12.50
2023-04-18T21:10:38.418Z,12.40
2023-04-18T21:13:05.508Z,12.40
2023-04-18T21:15:32.319Z,12.30
2023-04-18T21:17:59.357Z,12.30
2023-04-18T21:20:26.458Z,12.40
2023-04-18T21:22:53.357Z,12.30
2023-04-18T21:25:21.373Z,12.30
2023-04-18T21:27:50.642Z,12.40
2023-04-18T21:30:17.858Z,12.40
2023-04-18T21:32:45.881Z,12.40
2023-04-18T21:35:13.058Z,12.40
2023-04-18T21:37:39.954Z,12.30
2023-04-18T21:40:09.385Z,12.20
2023-04-18T21:42:37.564Z,12.10
2023-04-18T21:45:05.123Z,12.10
2023-04-18T21:47:32.871Z,12.00
2023-04-18T21:49:59.824Z,12.10
2023-04-18T21:52:26.775Z,12.00
2023-04-18T21:54:53.726Z,12.00
2023-04-18T21:57:20.581Z,12.10
2023-04-18T21:59:47.421Z,12.10
2023-04-18T22:02:14.354Z,12.00
2023-04-18T22:04:45.282Z,12.00
2023-04-18T22:07:12.488Z,12.10
2023-04-18T22:09:39.822Z,12.10
2023-04-18T22:12:06.898Z,12.00
2023-04-18T22:14:34.015Z,12.10
2023-04-18T22:17:04.861Z,12.00
2023-04-18T22:19:32.716Z,12.00
2023-04-18T22:21:59.627Z,12.10
2023-04-18T22:24:26.508Z,11.90
2023-04-18T22:26:53.662Z,11.80
2023-04-18T22:29:20.473Z,11.80
2023-04-18T22:31:47.324Z,11.80
2023-04-18T22:34:14.565Z,11.70
2023-04-18T22:36:42.804Z,11.60
2023-04-18T22:39:09.769Z,11.60
2023-04-18T22:41:36.650Z,11.60
2023-04-18T22:44:04.641Z,11.60
2023-04-18T22:46:32.831Z,11.50
2023-04-18T22:48:59.744Z,11.50
2023-04-18T22:51:28.658Z,11.40
2023-04-18T22:53:56.300Z,11.40
2023-04-18T22:56:23.354Z,11.30
2023-04-18T22:58:50.229Z,11.20
2023-04-18T23:01:17.350Z,11.20
2023-04-18T23:03:44.571Z,11.30
2023-04-18T23:06:11.550Z,11.20
2023-04-18T23:08:38.386Z,11.20
2023-04-18T23:11:05.257Z,11.20
2023-04-18T23:13:32.143Z,11.30
2023-04-18T23:15:59.060Z,11.40
2023-04-18T23:18:29.883Z,11.30
2023-04-18T23:20:56.698Z,11.30
2023-04-18T23:23:23.526Z,11.40
2023-04-18T23:25:50.393Z,11.40
2023-04-18T23:28:17.288Z,11.40
2023-04-18T23:30:44.373Z,11.40
2023-04-18T23:33:11.361Z,11.40
2023-04-18T23:35:38.157Z,11.40
2023-04-18T23:38:05.085Z,11.40
2023-04-18T23:40:31.895Z,11.40
2023-04-18T23:42:59.114Z,11.30
2023-04-18T23:45:26.091Z,11.30
2023-04-18T23:47:53.180Z,11.30
2023-04-18T23:50:20.492Z,11.30
2023-04-18T23:52:47.419Z,11.30
2023-04-18T23:55:14.316Z,11.30
2023-04-18T23:57:41.235Z,11.30
